Time;durP1;ratioP1;P1;durP2;ratioP2;P2;SDS_P1;SDS_P2;PMS_P1;PMS_P2;Temp;Humidity;BMP_temperature;BMP_pressure;BME280_temperature;BME280_humidity;BME280_pressure;Samples;Min_cycle;Max_cycle;Signal;HPM_P1;HPM_P2
2021/04/08 00:01:20;;;;;;;;;;;;;;;-1.16;90.62;101783.06;4939037;29;1059;-76
2021/04/08 00:03:45;;;;;;;;;;;;;;;-1.11;90.11;101782.38;4939132;29;1350;-76
2021/04/08 00:06:15;;;;;;;;;;;;;;;-1.00;89.96;101789.63;4938727;29;917;-76
2021/04/08 00:08:40;;;;;;;;;;;;;;;-0.93;89.90;101784.88;4938312;29;814;-77
2021/04/08 00:11:06;;;;;;;;;;;;;;;-0.81;89.04;101795.69;4938559;29;1051;-76
2021/04/08 00:13:32;;;;;;;;;;;;;;;-0.74;88.58;101796.34;4938838;29;1289;-77
2021/04/08 00:15:57;;;;;;;;;;;;;;;-0.72;88.88;101796.91;4938889;29;1894;-77
2021/04/08 00:18:23;;;;;;;;;;;;;;;-0.65;88.38;101805.72;4938374;29;837;-76
2021/04/08 00:20:48;;;;;;;;;;;;;;;-0.61;87.94;101798.72;4938878;29;814;-76
2021/04/08 00:23:13;;;;;;;;;;;;;;;-0.56;87.72;101803.41;4938370;29;972;-77
2021/04/08 00:25:39;;;;;;;;;;;;;;;-0.55;88.22;101809.66;4938658;29;1269;-76
2021/04/08 00:28:06;;;;;;;;;;;;;;;-0.49;87.77;101804.06;4938090;29;952;-76
2021/04/08 00:30:42;;;;;;;;;;;;;;;-0.45;87.30;101807.13;4938509;29;992;-76
2021/04/08 00:33:08;;;;;;;;;;;;;;;-0.45;87.07;101807.97;4938242;29;723;-76
2021/04/08 00:35:33;;;;;;;;;;;;;;;-0.34;86.77;101816.28;4938362;29;1961;-76
2021/04/08 00:37:58;;;;;;;;;;;;;;;-0.43;86.99;101818.56;4938899;29;845;-77
2021/04/08 00:40:24;;;;;;;;;;;;;;;-0.42;86.91;101814.78;4938329;29;797;-77
2021/04/08 00:42:49;;;;;;;;;;;;;;;-0.49;86.83;101808.69;4938361;29;920;-77
2021/04/08 00:45:14;;;;;;;;;;;;;;;-0.56;86.83;101819.69;4937879;29;1293;-77
2021/04/08 00:47:40;;;;;;;;;;;;;;;-0.66;87.13;101823.06;4937537;29;805;-77
2021/04/08 00:50:06;;;;;;;;;;;;;;;-0.69;87.87;101825.44;4938389;29;981;-77
2021/04/08 00:52:32;;;;;;;;;;;;;;;-0.66;87.49;101833.09;4938271;29;885;-77
2021/04/08 00:54:58;;;;;;;;;;;;;;;-0.73;87.99;101829.69;4938319;29;1894;-77
2021/04/08 00:57:24;;;;;;;;;;;;;;;-0.85;88.44;101829.75;4937884;29;877;-77
2021/04/08 00:59:51;;;;;;;;;;;;;;;-0.94;88.25;101832.03;4938221;29;877;-77
2021/04/08 01:02:17;;;;;;;;;;;;;;;-0.98;88.67;101828.16;4937979;29;917;-77
2021/04/08 01:04:42;;;;;;;;;;;;;;;-0.95;88.95;101849.38;4937816;29;1270;-76
2021/04/08 01:07:08;;;;;;;;;;;;;;;-0.84;88.67;101845.78;4937966;29;984;-76
2021/04/08 01:09:33;;;;;;;;;;;;;;;-0.71;88.80;101847.41;4937901;29;831;-77
2021/04/08 01:11:59;;;;;;;;;;;;;;;-0.52;87.45;101841.75;4938177;29;814;-76
2021/04/08 01:14:25;;;;;;;;;;;;;;;-0.52;87.20;101845.28;4937784;29;1900;-76
2021/04/08 01:16:58;;;;;;;;;;;;;;;-0.52;87.16;101845.28;4938396;29;940;-77
2021/04/08 01:20:01;;;;;;;;;;;;;;;-0.66;86.91;101846.66;4938104;29;977;-77
2021/04/08 01:22:32;;;;;;;;;;;;;;;-0.83;87.94;101852.03;4938561;29;901;-76
2021/04/08 01:25:20;;;;;;;;;;;;;;;-0.92;88.17;101856.19;4937934;29;1214;-76
2021/04/08 01:28:18;;;;;;;;;;;;;;;-0.96;88.91;101859.38;4937240;29;1000;-76
2021/04/08 01:30:53;;;;;;;;;;;;;;;-1.03;88.51;101857.91;4937887;29;967;-76
2021/04/08 01:33:25;;;;;;;;;;;;;;;-0.95;88.86;101860.22;4937950;29;916;-76
2021/04/08 01:35:52;;;;;;;;;;;;;;;-0.85;88.79;101867.72;4937694;29;1891;-76
2021/04/08 01:38:47;;;;;;;;;;;;;;;-0.78;89.13;101865.69;4937423;29;976;-77
2021/04/08 01:41:17;;;;;;;;;;;;;;;-0.62;88.51;101894.75;4935714;29;1728;-76
2021/04/08 01:43:45;;;;;;;;;;;;;;;-0.54;88.62;101895.44;4937575;29;1206;-76
2021/04/08 01:46:12;;;;;;;;;;;;;;;-0.49;88.56;101890.09;4937720;29;814;-77
2021/04/08 01:48:40;;;;;;;;;;;;;;;-0.42;88.62;101880.72;4937230;29;913;-77
2021/04/08 01:51:07;;;;;;;;;;;;;;;-0.41;88.09;101871.53;4937746;29;794;-76
2021/04/08 01:53:46;;;;;;;;;;;;;;;-0.39;87.79;101874.81;4937874;29;1289;-77
2021/04/08 01:56:16;;;;;;;;;;;;;;;-0.39;87.65;101880.25;4938549;29;1864;-77
2021/04/08 01:58:42;;;;;;;;;;;;;;;-0.45;87.87;101888.53;4938154;29;762;-76
2021/04/08 02:01:09;;;;;;;;;;;;;;;-0.58;88.24;101887.78;4937992;29;1055;-77
2021/04/08 02:03:36;;;;;;;;;;;;;;;-0.69;88.64;101885.94;4937434;29;1316;-78
2021/04/08 02:06:02;;;;;;;;;;;;;;;-0.74;88.83;101888.56;4937568;29;926;-76
2021/04/08 02:08:29;;;;;;;;;;;;;;;-0.73;89.10;101887.47;4937032;29;1128;-76
2021/04/08 02:10:55;;;;;;;;;;;;;;;-0.82;89.62;101886.22;4937619;29;971;-76
2021/04/08 02:13:23;;;;;;;;;;;;;;;-0.94;89.59;101891.69;4937436;29;952;-77
2021/04/08 02:15:57;;;;;;;;;;;;;;;-0.88;90.11;101895.31;4937369;29;1887;-77
2021/04/08 02:18:24;;;;;;;;;;;;;;;-0.73;90.13;101892.09;4937133;29;837;-77
2021/04/08 02:20:52;;;;;;;;;;;;;;;-0.72;89.81;101893.75;4939259;29;925;-76
2021/04/08 02:23:24;;;;;;;;;;;;;;;-0.65;90.37;101897.13;4941004;29;1055;-76
2021/04/08 02:25:51;;;;;;;;;;;;;;;-0.65;90.34;101889.00;4940674;29;864;-76
2021/04/08 02:28:18;;;;;;;;;;;;;;;-0.68;90.13;101892.19;4940661;29;698;-76
2021/04/08 02:30:48;;;;;;;;;;;;;;;-0.73;90.34;101892.91;4940860;29;881;-76
2021/04/08 02:33:27;;;;;;;;;;;;;;;-0.90;91.22;101882.03;4940880;29;928;-77
2021/04/08 02:35:53;;;;;;;;;;;;;;;-1.02;91.42;101887.47;4940719;29;1903;-76
2021/04/08 02:38:22;;;;;;;;;;;;;;;-1.10;92.08;101885.13;4939971;29;996;-76
2021/04/08 02:40:47;;;;;;;;;;;;;;;-1.16;92.21;101892.34;4940796;29;837;-76
2021/04/08 02:43:12;;;;;;;;;;;;;;;-1.24;92.26;101894.59;4940635;29;813;-77
2021/04/08 02:45:39;;;;;;;;;;;;;;;-1.28;92.44;101896.13;4940246;29;1250;-76
2021/04/08 02:48:09;;;;;;;;;;;;;;;-1.33;92.40;101903.09;4940082;29;1035;-77
2021/04/08 02:50:34;;;;;;;;;;;;;;;-1.32;92.82;101903.91;4940632;29;814;-76
2021/04/08 02:53:05;;;;;;;;;;;;;;;-1.32;92.66;101903.91;4940144;29;957;-76
2021/04/08 02:55:46;;;;;;;;;;;;;;;-1.36;92.58;101900.03;4940195;29;1938;-76
2021/04/08 02:58:15;;;;;;;;;;;;;;;-1.44;92.48;101897.69;4940070;29;889;-76
2021/04/08 03:00:49;;;;;;;;;;;;;;;-1.44;92.98;101897.69;4940156;29;1059;-76
2021/04/08 03:03:18;;;;;;;;;;;;;;;-1.45;92.94;101909.56;4940189;29;837;-77
2021/04/08 03:05:47;;;;;;;;;;;;;;;-1.44;93.45;101909.34;4942523;29;1175;-77
2021/04/08 03:08:15;;;;;;;;;;;;;;;-1.43;93.04;101919.13;4939569;29;838;-76
2021/04/08 03:10:44;;;;;;;;;;;;;;;-1.35;93.39;101926.91;4940173;29;881;-76
2021/04/08 03:13:11;;;;;;;;;;;;;;;-1.25;93.61;101920.88;4940113;29;1016;-76
2021/04/08 03:15:38;;;;;;;;;;;;;;;-1.14;93.40;101927.34;4940072;29;1903;-77
2021/04/08 03:18:06;;;;;;;;;;;;;;;-1.08;93.02;101929.09;4939549;29;745;-77
2021/04/08 03:20:33;;;;;;;;;;;;;;;-1.08;92.99;101926.38;4939523;29;811;-77
2021/04/08 03:23:02;;;;;;;;;;;;;;;-0.99;92.42;101933.09;4940142;29;889;-76
2021/04/08 03:25:29;;;;;;;;;;;;;;;-0.98;92.44;101937.44;4939384;29;1186;-76
2021/04/08 03:27:55;;;;;;;;;;;;;;;-0.92;91.82;101937.56;4939765;29;778;-77
2021/04/08 03:30:22;;;;;;;;;;;;;;;-0.88;91.75;101933.28;4939429;29;1023;-76
2021/04/08 03:32:48;;;;;;;;;;;;;;;-0.84;91.46;101937.19;4939585;29;785;-77
2021/04/08 03:35:14;;;;;;;;;;;;;;;-0.79;91.04;101938.09;4939515;29;1890;-76
2021/04/08 03:37:41;;;;;;;;;;;;;;;-0.74;91.27;101933.81;4939316;29;805;-76
2021/04/08 03:40:09;;;;;;;;;;;;;;;-0.74;90.73;101942.81;4939424;29;972;-76
2021/04/08 03:42:35;;;;;;;;;;;;;;;-0.73;91.23;101935.50;4939488;29;1015;-76
2021/04/08 03:45:00;;;;;;;;;;;;;;;-0.70;90.68;101938.53;4939401;29;1269;-76
2021/04/08 03:47:27;;;;;;;;;;;;;;;-0.68;91.24;101941.00;4939031;29;897;-77
2021/04/08 03:49:54;;;;;;;;;;;;;;;-0.68;90.99;101944.53;4939588;29;869;-76
2021/04/08 03:52:20;;;;;;;;;;;;;;;-0.67;91.25;101948.91;4939463;29;926;-77
2021/04/08 03:54:49;;;;;;;;;;;;;;;-0.67;91.06;101948.91;4939304;29;1895;-76
2021/04/08 03:57:19;;;;;;;;;;;;;;;-0.72;91.38;101950.72;4939045;29;818;-77
2021/04/08 03:59:46;;;;;;;;;;;;;;;-0.73;90.96;101951.75;4939242;29;889;-77
2021/04/08 04:02:13;;;;;;;;;;;;;;;-0.76;91.02;101955.78;4939198;29;802;-77
2021/04/08 04:04:39;;;;;;;;;;;;;;;-0.74;90.96;101959.09;4938986;29;1175;-77
2021/04/08 04:07:05;;;;;;;;;;;;;;;-0.69;91.50;101956.47;4939093;29;905;-78
2021/04/08 04:09:31;;;;;;;;;;;;;;;-0.65;91.03;101960.34;4938690;29;886;-76
2021/04/08 04:11:57;;;;;;;;;;;;;;;-0.63;90.94;101962.81;4939171;29;881;-76
2021/04/08 04:14:27;;;;;;;;;;;;;;;-0.67;91.06;101959.78;4938699;29;1968;-76
2021/04/08 04:16:57;;;;;;;;;;;;;;;-0.70;90.73;101968.38;4938744;29;1063;-77
2021/04/08 04:19:23;;;;;;;;;;;;;;;-0.74;90.90;101964.50;4938426;29;1021;-77
2021/04/08 04:21:49;;;;;;;;;;;;;;;-0.81;91.30;101964.66;4938851;29;911;-76
2021/04/08 04:24:15;;;;;;;;;;;;;;;-0.89;91.03;101972.31;4938893;29;1277;-77
2021/04/08 04:26:40;;;;;;;;;;;;;;;-0.97;91.24;101971.63;4939552;29;862;-76
2021/04/08 04:29:06;;;;;;;;;;;;;;;-1.04;91.53;101965.53;4938172;29;1068;-77
2021/04/08 04:31:35;;;;;;;;;;;;;;;-1.10;91.47;101974.59;4938875;29;689;-77
2021/04/08 04:34:03;;;;;;;;;;;;;;;-1.12;91.80;101979.44;4938700;29;1304;-77
2021/04/08 04:36:29;;;;;;;;;;;;;;;-1.09;91.98;101973.56;4938269;29;1961;-77
2021/04/08 04:38:54;;;;;;;;;;;;;;;-1.00;92.07;101977.53;4938300;29;869;-77
2021/04/08 04:41:19;;;;;;;;;;;;;;;-0.95;92.68;101980.34;4938633;29;842;-76
2021/04/08 04:43:45;;;;;;;;;;;;;;;-0.88;92.01;101982.94;4937675;29;1317;-77
2021/04/08 04:46:10;;;;;;;;;;;;;;;-0.79;91.62;101986.91;4938892;29;819;-76
2021/04/08 04:48:36;;;;;;;;;;;;;;;-0.78;91.56;101990.44;4938072;29;1068;-77
2021/04/08 04:51:01;;;;;;;;;;;;;;;-0.78;91.49;101985.88;4938319;29;756;-77
2021/04/08 04:53:27;;;;;;;;;;;;;;;-0.72;91.49;101989.50;4938729;29;1380;-76
2021/04/08 04:55:52;;;;;;;;;;;;;;;-0.59;91.38;101986.53;4937946;29;2232;-76
2021/04/08 04:58:17;;;;;;;;;;;;;;;-0.52;91.18;101985.53;4937959;29;1004;-76
2021/04/08 05:00:43;;;;;;;;;;;;;;;-0.41;90.77;101987.41;4938145;29;864;-76
2021/04/08 05:03:08;;;;;;;;;;;;;;;-0.35;90.40;101993.75;4938200;29;1051;-76
2021/04/08 05:05:33;;;;;;;;;;;;;;;-0.27;89.88;101990.66;4938157;29;1223;-76
2021/04/08 05:07:59;;;;;;;;;;;;;;;-0.18;89.44;101991.91;4938276;29;806;-76
2021/04/08 05:10:24;;;;;;;;;;;;;;;-0.11;88.75;101995.28;4938183;29;917;-76
2021/04/08 05:12:49;;;;;;;;;;;;;;;0.06;88.20;101992.59;4938216;29;852;-76
2021/04/08 05:15:15;;;;;;;;;;;;;;;0.19;87.25;101980.59;4938327;29;1919;-77
2021/04/08 05:17:40;;;;;;;;;;;;;;;0.26;86.64;101981.28;4937865;29;861;-77
2021/04/08 05:20:06;;;;;;;;;;;;;;;0.33;86.02;101995.53;4937853;29;829;-77
2021/04/08 05:22:31;;;;;;;;;;;;;;;0.31;85.34;101994.09;4937843;29;920;-76
2021/04/08 05:24:57;;;;;;;;;;;;;;;0.27;86.14;102001.94;4937991;29;1206;-76
2021/04/08 05:27:22;;;;;;;;;;;;;;;0.26;86.05;102005.72;4939522;29;972;-77
2021/04/08 05:29:48;;;;;;;;;;;;;;;0.28;86.23;102010.91;4939991;29;953;-76
2021/04/08 05:32:13;;;;;;;;;;;;;;;0.33;85.98;102011.00;4939594;29;976;-77
2021/04/08 05:34:38;;;;;;;;;;;;;;;0.35;85.85;102015.13;4939674;29;1899;-77
2021/04/08 05:37:04;;;;;;;;;;;;;;;0.40;85.95;102018.97;4939059;29;1027;-77
2021/04/08 05:39:29;;;;;;;;;;;;;;;0.47;85.71;102015.03;4937445;29;884;-76
2021/04/08 05:41:55;;;;;;;;;;;;;;;0.61;85.38;102020.16;4937732;29;988;-76
2021/04/08 05:44:20;;;;;;;;;;;;;;;0.73;84.60;102016.25;4937945;29;1182;-77
2021/04/08 05:46:46;;;;;;;;;;;;;;;0.85;84.27;102023.47;4938048;29;909;-76
2021/04/08 05:49:11;;;;;;;;;;;;;;;0.78;83.77;102025.56;4937435;29;848;-76
2021/04/08 05:51:37;;;;;;;;;;;;;;;0.71;84.09;102032.00;4937527;29;889;-77
2021/04/08 05:54:02;;;;;;;;;;;;;;;0.61;84.22;102036.47;4938228;29;1206;-77
2021/04/08 05:56:27;;;;;;;;;;;;;;;0.59;84.11;102038.59;4941400;29;1887;-76
2021/04/08 05:58:53;;;;;;;;;;;;;;;0.58;84.39;102045.91;4939454;29;1250;-76
2021/04/08 06:01:18;;;;;;;;;;;;;;;1.07;84.04;102031.69;4941429;29;913;-79
2021/04/08 06:03:43;;;;;;;;;;;;;;;3.93;72.75;102026.13;4940884;29;1190;-77
2021/04/08 06:06:09;;;;;;;;;;;;;;;2.78;74.34;102041.41;4940866;29;914;-76
2021/04/08 06:08:34;;;;;;;;;;;;;;;2.56;76.36;102049.69;4940722;29;829;-76
2021/04/08 06:11:00;;;;;;;;;;;;;;;2.12;77.28;102049.84;4941162;29;845;-77
2021/04/08 06:13:25;;;;;;;;;;;;;;;1.79;79.22;102054.41;4941363;29;1186;-76
2021/04/08 06:15:52;;;;;;;;;;;;;;;1.63;79.86;102064.28;4941170;29;1973;-77
2021/04/08 06:18:18;;;;;;;;;;;;;;;1.46;80.23;102062.44;4940825;29;900;-76
2021/04/08 06:20:43;;;;;;;;;;;;;;;1.53;80.79;102066.88;4941000;29;794;-76
2021/04/08 06:23:09;;;;;;;;;;;;;;;1.60;80.33;102062.06;4940879;29;1055;-76
2021/04/08 06:25:34;;;;;;;;;;;;;;;1.79;79.78;102068.00;4940758;29;1170;-77
2021/04/08 06:28:00;;;;;;;;;;;;;;;2.00;79.42;102063.63;4940502;29;884;-76
2021/04/08 06:30:26;;;;;;;;;;;;;;;2.97;76.28;102063.63;4940650;29;868;-77
2021/04/08 06:32:54;;;;;;;;;;;;;;;5.45;66.81;102055.56;4940582;29;834;-76
2021/04/08 06:35:21;;;;;;;;;;;;;;;5.31;65.16;102062.75;4940847;29;1970;-77
2021/04/08 06:37:47;;;;;;;;;;;;;;;3.76;68.94;102070.88;4940386;29;896;-77
2021/04/08 06:40:13;;;;;;;;;;;;;;;3.06;73.10;102072.16;4939411;29;1706;-76
2021/04/08 06:42:41;;;;;;;;;;;;;;;2.72;73.77;102065.09;4942276;29;802;-77
2021/04/08 06:45:07;;;;;;;;;;;;;;;2.54;75.43;102063.56;4940599;29;1202;-77
2021/04/08 06:48:06;;;;;;;;;;;;;;;2.69;75.62;102065.63;4939969;29;794;-77
2021/04/08 06:50:40;;;;;;;;;;;;;;;2.90;74.53;102079.41;4938731;29;1222;-77
2021/04/08 06:53:07;;;;;;;;;;;;;;;3.28;73.38;102069.28;4940411;29;833;-77
2021/04/08 06:55:34;;;;;;;;;;;;;;;3.42;72.15;102069.66;4940136;29;1966;-76
2021/04/08 06:58:01;;;;;;;;;;;;;;;4.06;69.77;102068.50;4940075;29;765;-77
2021/04/08 07:00:27;;;;;;;;;;;;;;;6.33;63.29;102066.94;4940282;29;814;-76
2021/04/08 07:02:53;;;;;;;;;;;;;;;6.73;59.89;102071.31;4940341;29;820;-77
2021/04/08 07:05:18;;;;;;;;;;;;;;;10.76;52.34;102062.34;4939455;29;1198;-77
2021/04/08 07:07:44;;;;;;;;;;;;;;;13.04;42.74;102058.03;4939329;29;870;-76
2021/04/08 07:10:10;;;;;;;;;;;;;;;12.28;43.90;102067.78;4940076;29;865;-76
2021/04/08 07:12:37;;;;;;;;;;;;;;;11.55;45.33;102074.63;4939770;29;833;-76
2021/04/08 07:15:03;;;;;;;;;;;;;;;9.43;51.98;102084.63;4939718;29;1965;-77
2021/04/08 07:17:29;;;;;;;;;;;;;;;7.96;54.99;102079.28;4939694;29;913;-76
2021/04/08 07:19:57;;;;;;;;;;;;;;;6.64;57.20;102092.22;4939975;29;876;-76
2021/04/08 07:22:24;;;;;;;;;;;;;;;5.43;62.98;102088.75;4939685;29;759;-77
2021/04/08 07:24:50;;;;;;;;;;;;;;;5.34;64.07;102087.66;4939276;29;1132;-76
2021/04/08 07:27:19;;;;;;;;;;;;;;;5.18;63.97;102084.13;4939457;29;1063;-77
2021/04/08 07:29:49;;;;;;;;;;;;;;;5.18;63.27;102086.06;4939619;29;844;-77
2021/04/08 07:32:33;;;;;;;;;;;;;;;5.26;64.25;102091.00;4939880;29;830;-77
2021/04/08 07:35:04;;;;;;;;;;;;;;;4.85;64.90;102100.06;4939481;29;1887;-77
2021/04/08 07:37:35;;;;;;;;;;;;;;;4.23;66.59;102090.97;4939291;29;838;-77
2021/04/08 07:40:17;;;;;;;;;;;;;;;4.17;67.46;102091.22;4939552;29;1004;-77
2021/04/08 07:42:43;;;;;;;;;;;;;;;4.08;67.60;102090.94;4939637;29;814;-77
2021/04/08 07:45:10;;;;;;;;;;;;;;;4.11;67.11;102093.94;4939514;29;1166;-77
2021/04/08 07:47:40;;;;;;;;;;;;;;;4.32;67.17;102094.00;4938982;29;999;-76
2021/04/08 07:50:06;;;;;;;;;;;;;;;4.23;65.92;102096.44;4939290;29;865;-77
2021/04/08 07:52:39;;;;;;;;;;;;;;;4.31;65.87;102097.84;4939409;29;949;-77
2021/04/08 07:55:16;;;;;;;;;;;;;;;4.62;64.01;102095.13;4939294;29;1903;-77
2021/04/08 07:58:06;;;;;;;;;;;;;;;5.16;63.54;102101.97;4938653;29;981;-76
2021/04/08 08:00:33;;;;;;;;;;;;;;;6.03;61.84;102107.16;4937960;29;1354;-77
2021/04/08 08:03:04;;;;;;;;;;;;;;;10.53;50.67;102102.97;4938901;29;798;-79
2021/04/08 08:05:32;;;;;;;;;;;;;;;12.11;44.64;102097.09;4939208;29;1219;-77
2021/04/08 08:08:13;;;;;;;;;;;;;;;11.59;45.03;102095.00;4938656;29;830;-77
2021/04/08 08:10:42;;;;;;;;;;;;;;;10.55;47.28;102103.47;4939176;29;861;-77
2021/04/08 08:13:28;;;;;;;;;;;;;;;10.37;47.85;102098.97;4938749;29;814;-76
2021/04/08 08:15:57;;;;;;;;;;;;;;;10.37;46.82;102107.25;4938741;29;1970;-77
2021/04/08 08:18:31;;;;;;;;;;;;;;;10.47;46.41;102115.28;4938804;29;849;-76
2021/04/08 08:21:02;;;;;;;;;;;;;;;10.53;46.94;102112.06;4938407;29;924;-77
2021/04/08 08:23:34;;;;;;;;;;;;;;;9.50;48.46;102118.97;4938290;29;1194;-77
2021/04/08 08:26:28;;;;;;;;;;;;;;;9.50;48.41;102116.22;4938528;29;1016;-77
2021/04/08 08:28:57;;;;;;;;;;;;;;;10.90;46.67;102117.53;4938499;29;912;-77
2021/04/08 08:31:33;;;;;;;;;;;;;;;11.72;44.20;102106.25;4939815;29;989;-77
2021/04/08 08:34:02;;;;;;;;;;;;;;;12.44;41.32;102104.09;4938108;29;1304;-77
2021/04/08 08:36:29;;;;;;;;;;;;;;;12.06;41.71;102099.19;4938179;29;1966;-76
2021/04/08 08:38:56;;;;;;;;;;;;;;;11.16;44.09;102106.66;4937672;29;873;-77
2021/04/08 08:41:22;;;;;;;;;;;;;;;9.97;46.38;102113.31;4938386;29;830;-76
2021/04/08 08:43:48;;;;;;;;;;;;;;;8.66;49.74;102123.44;4938534;29;1214;-77
2021/04/08 08:46:15;;;;;;;;;;;;;;;7.99;51.25;102123.53;4938294;29;981;-77
2021/04/08 08:48:40;;;;;;;;;;;;;;;7.91;52.38;102124.22;4937664;29;829;-77
2021/04/08 08:51:06;;;;;;;;;;;;;;;7.95;53.29;102124.44;4937800;29;920;-77
2021/04/08 08:53:32;;;;;;;;;;;;;;;8.00;52.33;102127.94;4938437;29;1280;-76
2021/04/08 08:55:58;;;;;;;;;;;;;;;8.07;53.21;102127.56;4937989;29;1972;-76
2021/04/08 08:58:23;;;;;;;;;;;;;;;7.94;52.49;102126.34;4937794;29;797;-76
2021/04/08 09:00:49;;;;;;;;;;;;;;;7.62;52.05;102127.84;4937989;29;986;-77
2021/04/08 09:03:14;;;;;;;;;;;;;;;7.69;52.95;102122.81;4937928;29;833;-77
2021/04/08 09:05:40;;;;;;;;;;;;;;;7.67;52.72;102124.22;4937772;29;1178;-76
2021/04/08 09:08:10;;;;;;;;;;;;;;;7.76;52.41;102127.94;4937462;29;968;-76
2021/04/08 09:10:39;;;;;;;;;;;;;;;7.85;53.19;102130.88;4938111;29;905;-76
2021/04/08 09:13:05;;;;;;;;;;;;;;;7.18;52.99;102134.34;4937939;29;845;-76
2021/04/08 09:15:30;;;;;;;;;;;;;;;7.49;52.66;102131.28;4937970;29;1903;-76
2021/04/08 09:18:01;;;;;;;;;;;;;;;6.74;53.24;102127.03;4937948;29;992;-76
2021/04/08 09:20:30;;;;;;;;;;;;;;;6.86;53.61;102135.72;4937752;29;841;-76
2021/04/08 09:23:01;;;;;;;;;;;;;;;6.99;54.07;102131.50;4937396;29;846;-76
2021/04/08 09:25:31;;;;;;;;;;;;;;;7.24;53.72;102130.44;4937524;29;1228;-76
2021/04/08 09:28:01;;;;;;;;;;;;;;;7.55;53.61;102135.63;4937184;29;830;-77
2021/04/08 09:33:43;;;;;;;;;;;;;;;7.97;52.33;102134.00;4941449;29;632;-76
2021/04/08 09:36:21;;;;;;;;;;;;;;;8.61;50.92;102130.97;4941382;29;1906;-76
2021/04/08 09:38:48;;;;;;;;;;;;;;;8.19;51.60;102136.22;4940950;29;865;-76
2021/04/08 09:41:13;;;;;;;;;;;;;;;7.31;51.93;102132.84;4941371;29;830;-76
2021/04/08 09:43:40;;;;;;;;;;;;;;;6.90;52.77;102128.56;4941055;29;1206;-76
2021/04/08 09:46:10;;;;;;;;;;;;;;;6.78;53.50;102141.81;4941642;29;861;-76
2021/04/08 09:48:45;;;;;;;;;;;;;;;6.97;54.12;102141.94;4940946;29;897;-76
2021/04/08 09:51:25;;;;;;;;;;;;;;;7.04;53.00;102128.72;4941241;29;922;-76
2021/04/08 09:53:54;;;;;;;;;;;;;;;6.70;54.02;102129.53;4941142;29;1309;-76
2021/04/08 09:56:42;;;;;;;;;;;;;;;6.48;54.50;102118.97;4941375;29;1910;-76
2021/04/08 09:59:07;;;;;;;;;;;;;;;6.53;55.28;102129.09;4940737;29;961;-77
2021/04/08 10:01:33;;;;;;;;;;;;;;;6.85;53.41;102136.00;4941029;29;836;-76
2021/04/08 10:04:16;;;;;;;;;;;;;;;6.57;53.47;102138.41;4940709;29;1198;-76
2021/04/08 10:06:42;;;;;;;;;;;;;;;6.52;54.50;102143.91;4940947;29;1062;-76
2021/04/08 10:09:10;;;;;;;;;;;;;;;6.34;53.85;102134.44;4940676;29;985;-75
2021/04/08 10:11:36;;;;;;;;;;;;;;;6.44;53.26;102148.09;4941024;29;1000;-76
2021/04/08 10:14:17;;;;;;;;;;;;;;;6.63;52.91;102134.53;4940727;29;1277;-75
2021/04/08 10:16:43;;;;;;;;;;;;;;;7.01;52.42;102131.19;4941101;29;1891;-76
2021/04/08 10:19:08;;;;;;;;;;;;;;;6.62;52.98;102126.56;4940363;29;917;-75
2021/04/08 10:21:34;;;;;;;;;;;;;;;6.81;53.43;102133.00;4940550;29;901;-76
2021/04/08 10:24:00;;;;;;;;;;;;;;;7.18;51.18;102133.50;4940399;29;1139;-76
2021/04/08 10:26:33;;;;;;;;;;;;;;;7.01;52.72;102131.19;4940516;29;968;-76
2021/04/08 10:29:00;;;;;;;;;;;;;;;7.19;52.47;102133.22;4940969;29;814;-76
2021/04/08 10:31:35;;;;;;;;;;;;;;;7.94;51.46;102131.03;4940508;29;806;-75
2021/04/08 10:34:03;;;;;;;;;;;;;;;8.08;50.83;102129.19;4940546;29;1567;-75
2021/04/08 10:36:30;;;;;;;;;;;;;;;7.89;49.94;102127.25;4940633;29;1879;-75
2021/04/08 10:39:16;;;;;;;;;;;;;;;8.03;50.82;102121.84;4939890;29;763;-75
2021/04/08 10:42:11;;;;;;;;;;;;;;;8.19;49.55;102119.69;4939103;29;786;-75
2021/04/08 10:44:41;;;;;;;;;;;;;;;7.77;50.25;102109.50;4940255;29;1230;-75
2021/04/08 10:47:06;;;;;;;;;;;;;;;7.95;49.84;102122.50;4940292;29;901;-75
2021/04/08 10:49:35;;;;;;;;;;;;;;;7.79;48.07;102119.13;4939792;29;818;-76
2021/04/08 10:52:06;;;;;;;;;;;;;;;8.09;48.47;102114.34;4940326;29;1051;-75
2021/04/08 10:54:34;;;;;;;;;;;;;;;8.15;48.33;102107.66;4939842;29;1890;-76
2021/04/08 10:57:01;;;;;;;;;;;;;;;8.49;47.01;102109.38;4940128;29;817;-75
2021/04/08 10:59:27;;;;;;;;;;;;;;;9.03;46.57;102109.88;4939500;29;1075;-76
2021/04/08 11:01:54;;;;;;;;;;;;;;;9.50;44.99;102107.09;4939905;29;830;-75
2021/04/08 11:04:22;;;;;;;;;;;;;;;9.33;41.83;102107.72;4940016;29;1202;-75
2021/04/08 11:06:49;;;;;;;;;;;;;;;9.57;41.98;102105.59;4939743;29;860;-75
2021/04/08 11:09:34;;;;;;;;;;;;;;;10.35;39.89;102099.28;4939642;29;1213;-75
2021/04/08 11:12:16;;;;;;;;;;;;;;;10.53;39.25;102100.22;4939740;29;1141;-75
2021/04/08 11:14:47;;;;;;;;;;;;;;;9.67;40.75;102087.19;4939790;29;1898;-75
2021/04/08 11:17:13;;;;;;;;;;;;;;;8.26;42.29;102095.38;4938238;29;1340;-74
2021/04/08 11:19:40;;;;;;;;;;;;;;;7.43;43.71;102089.28;4939517;29;822;-75
2021/04/08 11:22:10;;;;;;;;;;;;;;;7.38;44.36;102094.84;4939891;29;997;-75
2021/04/08 11:24:35;;;;;;;;;;;;;;;7.26;45.19;102100.72;4939425;29;1159;-75
2021/04/08 11:27:00;;;;;;;;;;;;;;;6.86;45.80;102105.50;4939395;29;877;-75
2021/04/08 11:29:28;;;;;;;;;;;;;;;6.42;47.41;102106.41;4938915;29;865;-75
2021/04/08 11:32:04;;;;;;;;;;;;;;;5.96;47.93;102112.94;4939826;29;783;-75
2021/04/08 11:34:45;;;;;;;;;;;;;;;5.75;49.60;102106.72;4939443;29;2068;-74
2021/04/08 11:37:11;;;;;;;;;;;;;;;5.78;49.55;102122.59;4939505;29;921;-75
2021/04/08 11:39:37;;;;;;;;;;;;;;;5.97;49.39;102117.34;4939481;29;790;-75
2021/04/08 11:42:20;;;;;;;;;;;;;;;6.18;48.24;102101.59;4939718;29;794;-75
2021/04/08 11:44:47;;;;;;;;;;;;;;;6.43;47.51;102097.06;4939492;29;1195;-74
2021/04/08 11:47:16;;;;;;;;;;;;;;;6.81;46.33;102099.25;4939484;29;992;-74
2021/04/08 11:49:43;;;;;;;;;;;;;;;6.82;46.85;102107.19;4939341;29;786;-75
2021/04/08 11:52:09;;;;;;;;;;;;;;;7.03;46.01;102083.13;4939131;29;825;-74
2021/04/08 11:54:35;;;;;;;;;;;;;;;7.39;45.48;102085.50;4939261;29;1894;-75
2021/04/08 11:57:05;;;;;;;;;;;;;;;7.74;44.64;102088.94;4939451;29;794;-75
2021/04/08 11:59:33;;;;;;;;;;;;;;;8.23;43.04;102084.97;4939411;29;880;-75
2021/04/08 12:01:59;;;;;;;;;;;;;;;7.99;43.45;102082.28;4939192;29;857;-75
2021/04/08 12:04:27;;;;;;;;;;;;;;;8.05;43.04;102083.84;4939781;29;1274;-74
2021/04/08 12:06:58;;;;;;;;;;;;;;;7.88;43.73;102089.03;4939055;29;1004;-74
2021/04/08 12:09:34;;;;;;;;;;;;;;;7.90;43.15;102089.56;4938610;29;877;-75
2021/04/08 12:12:00;;;;;;;;;;;;;;;7.45;43.88;102083.50;4939159;29;996;-75
2021/04/08 12:14:25;;;;;;;;;;;;;;;7.18;44.99;102079.41;4938936;29;1269;-75
2021/04/08 12:17:05;;;;;;;;;;;;;;;6.91;47.08;102091.72;4938745;29;1940;-74
2021/04/08 12:19:32;;;;;;;;;;;;;;;6.63;48.22;102098.00;4938440;29;908;-75
2021/04/08 12:22:07;;;;;;;;;;;;;;;6.26;49.55;102102.09;4938767;29;834;-75
2021/04/08 12:24:32;;;;;;;;;;;;;;;6.07;49.63;102094.53;4938460;29;1222;-75
2021/04/08 12:26:58;;;;;;;;;;;;;;;5.67;50.22;102095.50;4938676;29;822;-75
2021/04/08 12:29:24;;;;;;;;;;;;;;;5.43;50.71;102115.31;4938530;29;854;-74
2021/04/08 12:31:53;;;;;;;;;;;;;;;5.40;51.71;102096.72;4938328;29;829;-75
2021/04/08 12:34:19;;;;;;;;;;;;;;;5.45;51.60;102094.75;4938061;29;1190;-74
2021/04/08 12:36:55;;;;;;;;;;;;;;;5.59;52.06;102091.44;4938314;29;1891;-75
2021/04/08 12:39:20;;;;;;;;;;;;;;;5.71;50.87;102088.34;4941085;29;798;-75
2021/04/08 12:41:46;;;;;;;;;;;;;;;5.99;51.43;102084.97;4939519;29;979;-76
2021/04/08 12:44:11;;;;;;;;;;;;;;;6.01;50.68;102082.78;4939088;29;1334;-75
2021/04/08 12:46:37;;;;;;;;;;;;;;;6.06;49.63;102075.63;4940367;29;921;-75
2021/04/08 12:49:02;;;;;;;;;;;;;;;6.03;49.96;102074.25;4938738;29;817;-74
2021/04/08 12:51:28;;;;;;;;;;;;;;;6.08;49.73;102070.69;4938860;29;956;-75
2021/04/08 12:53:55;;;;;;;;;;;;;;;6.36;47.43;102071.88;4938830;29;1281;-75
2021/04/08 12:56:22;;;;;;;;;;;;;;;6.82;46.75;102071.50;4938254;29;1890;-75
2021/04/08 12:58:48;;;;;;;;;;;;;;;7.66;45.88;102054.66;4938054;29;904;-75
2021/04/08 13:01:13;;;;;;;;;;;;;;;7.75;44.29;102052.06;4937778;29;1000;-75
2021/04/08 13:03:38;;;;;;;;;;;;;;;7.26;43.88;102059.53;4937178;29;1316;-75
2021/04/08 13:06:04;;;;;;;;;;;;;;;7.10;45.46;102049.81;4937843;29;810;-75
2021/04/08 13:08:29;;;;;;;;;;;;;;;7.04;44.18;102059.22;4937743;29;944;-75